Weather at Montréal / Saint-Hubert Airport

Public forecast

Using degrees Celsius for public forecast. Weather courtesy of forecast.io.

Current aviation weather report (METAR) for Montréal / Saint-Hubert Airport

Retrieved 2020/11/26 06:20 UTC (0 seconds ago):

CYHU 260620Z AUTO 01007KT 4SM -SN OVC060 M00/M01 A3011 RMK SLP200

Aviation forecast (TAF) for Montréal / Saint-Hubert Airport

Retrieved 2020/11/26 06:42 UTC (0 seconds ago):

TAF TAF CYHU 260539Z 2606/2706 01008KT P6SM OVC030 TEMPO 2606/2608 4SM -FZRA BR BKN005 OVC040 FM260800 05008KT 1SM -FZRA BR OVC004 TEMPO 2608/2612 1/2SM -FZDZ FG VV002 PROB30 2608/2610 1/4SM FZFG VV001 FM261200 06010KT 1SM -RA BR OVC004 TEMPO 2612/2614 1/2SM -DZ FG VV002 FM261400 04010KT 5SM -RA BR OVC008 TEMPO 2614/2621 2SM -DZ BR OVC005 FM262100 04008KT 1/2SM -DZ FG VV002 PROB30 2700/2705 1/4SM FG VV001 FM270500 24013KT 6SM BR BKN008 OVC012 RMK FCST BASED ON AUTO OBS NXT FCST BY 261200Z